sensor_id;sensor_type;location;lat;lon;timestamp;pressure;altitude;pressure_sealevel;temperature
15079;BMP180;6932;51.438;5.470;2022-09-21T00:01:20;102258.00;;;18.50
15079;BMP180;6932;51.438;5.470;2022-09-21T00:03:50;102253.00;;;18.40
15079;BMP180;6932;51.438;5.470;2022-09-21T00:06:19;102257.00;;;18.40
15079;BMP180;6932;51.438;5.470;2022-09-21T00:08:46;102258.00;;;18.40
15079;BMP180;6932;51.438;5.470;2022-09-21T00:11:26;102251.00;;;18.40
15079;BMP180;6932;51.438;5.470;2022-09-21T00:13:55;102259.00;;;18.40
15079;BMP180;6932;51.438;5.470;2022-09-21T00:16:22;102256.00;;;18.40
15079;BMP180;6932;51.438;5.470;2022-09-21T00:18:48;102244.00;;;18.30
15079;BMP180;6932;51.438;5.470;2022-09-21T00:21:15;102246.00;;;18.40
15079;BMP180;6932;51.438;5.470;2022-09-21T00:23:42;102247.00;;;18.40
15079;BMP180;6932;51.438;5.470;2022-09-21T00:26:19;102246.00;;;18.40
15079;BMP180;6932;51.438;5.470;2022-09-21T00:28:46;102252.00;;;18.30
15079;BMP180;6932;51.438;5.470;2022-09-21T00:31:14;102249.00;;;18.30
15079;BMP180;6932;51.438;5.470;2022-09-21T00:33:42;102248.00;;;18.30
15079;BMP180;6932;51.438;5.470;2022-09-21T00:36:15;102254.00;;;18.30
15079;BMP180;6932;51.438;5.470;2022-09-21T00:38:42;102245.00;;;18.30
15079;BMP180;6932;51.438;5.470;2022-09-21T00:41:11;102245.00;;;18.30
15079;BMP180;6932;51.438;5.470;2022-09-21T00:43:46;102247.00;;;18.30
15079;BMP180;6932;51.438;5.470;2022-09-21T00:46:27;102255.00;;;18.30
15079;BMP180;6932;51.438;5.470;2022-09-21T00:48:54;102249.00;;;18.30
15079;BMP180;6932;51.438;5.470;2022-09-21T00:51:20;102254.00;;;18.20
15079;BMP180;6932;51.438;5.470;2022-09-21T00:53:52;102263.00;;;18.20
15079;BMP180;6932;51.438;5.470;2022-09-21T00:56:18;102255.00;;;18.20
15079;BMP180;6932;51.438;5.470;2022-09-21T00:58:48;102255.00;;;18.20
15079;BMP180;6932;51.438;5.470;2022-09-21T01:01:15;102257.00;;;18.10
15079;BMP180;6932;51.438;5.470;2022-09-21T01:03:45;102255.00;;;18.00
15079;BMP180;6932;51.438;5.470;2022-09-21T01:06:12;102255.00;;;18.00
15079;BMP180;6932;51.438;5.470;2022-09-21T01:08:40;102260.00;;;17.90
15079;BMP180;6932;51.438;5.470;2022-09-21T01:11:24;102257.00;;;17.80
15079;BMP180;6932;51.438;5.470;2022-09-21T01:17:10;102263.00;;;17.70
15079;BMP180;6932;51.438;5.470;2022-09-21T01:25:58;102266.00;;;17.50
15079;BMP180;6932;51.438;5.470;2022-09-21T01:37:54;102261.00;;;17.50
15079;BMP180;6932;51.438;5.470;2022-09-21T01:40:34;102256.00;;;17.50
15079;BMP180;6932;51.438;5.470;2022-09-21T01:43:04;102258.00;;;17.50
15079;BMP180;6932;51.438;5.470;2022-09-21T01:45:36;102255.00;;;17.40
15079;BMP180;6932;51.438;5.470;2022-09-21T01:48:03;102252.00;;;17.40
15079;BMP180;6932;51.438;5.470;2022-09-21T01:50:49;102263.00;;;17.40
15079;BMP180;6932;51.438;5.470;2022-09-21T01:53:26;102255.00;;;17.40
15079;BMP180;6932;51.438;5.470;2022-09-21T01:55:58;102257.00;;;17.40
15079;BMP180;6932;51.438;5.470;2022-09-21T01:58:54;102254.00;;;17.40
15079;BMP180;6932;51.438;5.470;2022-09-21T02:01:24;102258.00;;;17.40
15079;BMP180;6932;51.438;5.470;2022-09-21T02:04:03;102258.00;;;17.40
15079;BMP180;6932;51.438;5.470;2022-09-21T02:06:32;102248.00;;;17.40
15079;BMP180;6932;51.438;5.470;2022-09-21T02:08:58;102251.00;;;17.40
15079;BMP180;6932;51.438;5.470;2022-09-21T02:11:24;102257.00;;;17.40
15079;BMP180;6932;51.438;5.470;2022-09-21T02:13:52;102243.00;;;17.40
15079;BMP180;6932;51.438;5.470;2022-09-21T02:16:38;102248.00;;;17.40
15079;BMP180;6932;51.438;5.470;2022-09-21T02:22:04;102242.00;;;17.30
15079;BMP180;6932;51.438;5.470;2022-09-21T02:25:04;102240.00;;;17.30
15079;BMP180;6932;51.438;5.470;2022-09-21T02:27:52;102242.00;;;17.30
15079;BMP180;6932;51.438;5.470;2022-09-21T02:30:33;102247.00;;;17.30
15079;BMP180;6932;51.438;5.470;2022-09-21T02:33:42;102249.00;;;17.20
15079;BMP180;6932;51.438;5.470;2022-09-21T02:37:17;102248.00;;;17.20
15079;BMP180;6932;51.438;5.470;2022-09-21T02:42:11;102239.00;;;17.10
15079;BMP180;6932;51.438;5.470;2022-09-21T02:44:50;102238.00;;;17.10
15079;BMP180;6932;51.438;5.470;2022-09-21T02:47:45;102240.00;;;17.10
15079;BMP180;6932;51.438;5.470;2022-09-21T02:50:26;102242.00;;;17.00
15079;BMP180;6932;51.438;5.470;2022-09-21T02:52:54;102244.00;;;17.00
15079;BMP180;6932;51.438;5.470;2022-09-21T02:55:22;102238.00;;;17.00
15079;BMP180;6932;51.438;5.470;2022-09-21T02:57:49;102243.00;;;17.00
15079;BMP180;6932;51.438;5.470;2022-09-21T03:00:16;102240.00;;;17.00
15079;BMP180;6932;51.438;5.470;2022-09-21T03:02:43;102245.00;;;17.00
15079;BMP180;6932;51.438;5.470;2022-09-21T03:05:12;102243.00;;;17.00
15079;BMP180;6932;51.438;5.470;2022-09-21T03:07:38;102239.00;;;17.00
15079;BMP180;6932;51.438;5.470;2022-09-21T03:10:05;102246.00;;;16.90
15079;BMP180;6932;51.438;5.470;2022-09-21T03:12:33;102244.00;;;16.90
15079;BMP180;6932;51.438;5.470;2022-09-21T03:14:58;102246.00;;;16.90
15079;BMP180;6932;51.438;5.470;2022-09-21T03:17:25;102255.00;;;16.90
15079;BMP180;6932;51.438;5.470;2022-09-21T03:19:51;102258.00;;;16.80
15079;BMP180;6932;51.438;5.470;2022-09-21T03:22:22;102244.00;;;16.80
15079;BMP180;6932;51.438;5.470;2022-09-21T03:24:49;102248.00;;;16.80
15079;BMP180;6932;51.438;5.470;2022-09-21T03:27:20;102255.00;;;16.80
15079;BMP180;6932;51.438;5.470;2022-09-21T03:29:46;102251.00;;;16.80
15079;BMP180;6932;51.438;5.470;2022-09-21T03:32:13;102246.00;;;16.80
15079;BMP180;6932;51.438;5.470;2022-09-21T03:34:39;102256.00;;;16.80
15079;BMP180;6932;51.438;5.470;2022-09-21T03:37:07;102253.00;;;16.70
15079;BMP180;6932;51.438;5.470;2022-09-21T03:39:33;102253.00;;;16.70
15079;BMP180;6932;51.438;5.470;2022-09-21T03:42:00;102256.00;;;16.70
15079;BMP180;6932;51.438;5.470;2022-09-21T03:44:27;102255.00;;;16.70
15079;BMP180;6932;51.438;5.470;2022-09-21T03:46:53;102258.00;;;16.60
15079;BMP180;6932;51.438;5.470;2022-09-21T03:49:19;102265.00;;;16.60
15079;BMP180;6932;51.438;5.470;2022-09-21T03:51:45;102267.00;;;16.60
15079;BMP180;6932;51.438;5.470;2022-09-21T03:54:11;102268.00;;;16.60
15079;BMP180;6932;51.438;5.470;2022-09-21T03:56:37;102269.00;;;16.60
15079;BMP180;6932;51.438;5.470;2022-09-21T03:59:03;102268.00;;;16.50
15079;BMP180;6932;51.438;5.470;2022-09-21T04:01:29;102275.00;;;16.50
15079;BMP180;6932;51.438;5.470;2022-09-21T04:03:54;102275.00;;;16.50
15079;BMP180;6932;51.438;5.470;2022-09-21T04:06:20;102262.00;;;16.50
15079;BMP180;6932;51.438;5.470;2022-09-21T04:08:46;102263.00;;;16.50
15079;BMP180;6932;51.438;5.470;2022-09-21T04:11:17;102265.00;;;16.50
15079;BMP180;6932;51.438;5.470;2022-09-21T04:13:43;102261.00;;;16.50
15079;BMP180;6932;51.438;5.470;2022-09-21T04:16:10;102270.00;;;16.50
15079;BMP180;6932;51.438;5.470;2022-09-21T04:18:36;102266.00;;;16.50
15079;BMP180;6932;51.438;5.470;2022-09-21T04:21:04;102267.00;;;16.50
15079;BMP180;6932;51.438;5.470;2022-09-21T04:23:31;102263.00;;;16.60
15079;BMP180;6932;51.438;5.470;2022-09-21T04:25:57;102261.00;;;16.60
15079;BMP180;6932;51.438;5.470;2022-09-21T04:28:23;102266.00;;;16.60
15079;BMP180;6932;51.438;5.470;2022-09-21T04:30:53;102269.00;;;16.60
15079;BMP180;6932;51.438;5.470;2022-09-21T04:33:19;102268.00;;;16.60
15079;BMP180;6932;51.438;5.470;2022-09-21T04:35:45;102266.00;;;16.60
15079;BMP180;6932;51.438;5.470;2022-09-21T04:38:10;102272.00;;;16.60
15079;BMP180;6932;51.438;5.470;2022-09-21T04:40:37;102268.00;;;16.60
15079;BMP180;6932;51.438;5.470;2022-09-21T04:43:03;102272.00;;;16.60
15079;BMP180;6932;51.438;5.470;2022-09-21T04:45:29;102267.00;;;16.60
15079;BMP180;6932;51.438;5.470;2022-09-21T04:47:55;102269.00;;;16.60
15079;BMP180;6932;51.438;5.470;2022-09-21T04:50:21;102273.00;;;16.70
15079;BMP180;6932;51.438;5.470;2022-09-21T04:52:46;102283.00;;;16.70
15079;BMP180;6932;51.438;5.470;2022-09-21T04:55:12;102283.00;;;16.70
15079;BMP180;6932;51.438;5.470;2022-09-21T04:57:38;102276.00;;;16.60
15079;BMP180;6932;51.438;5.470;2022-09-21T05:00:04;102273.00;;;16.60
15079;BMP180;6932;51.438;5.470;2022-09-21T05:02:31;102195.00;;;16.60
15079;BMP180;6932;51.438;5.470;2022-09-21T05:04:56;102188.00;;;16.30
15079;BMP180;6932;51.438;5.470;2022-09-21T05:07:22;102192.00;;;16.00
15079;BMP180;6932;51.438;5.470;2022-09-21T05:09:48;102191.00;;;15.70
15079;BMP180;6932;51.438;5.470;2022-09-21T05:12:33;102197.00;;;15.40
15079;BMP180;6932;51.438;5.470;2022-09-21T05:15:00;102196.00;;;15.30
15079;BMP180;6932;51.438;5.470;2022-09-21T05:17:26;102287.00;;;15.10
15079;BMP180;6932;51.438;5.470;2022-09-21T05:19:52;102287.00;;;15.20
15079;BMP180;6932;51.438;5.470;2022-09-21T05:22:19;102292.00;;;15.40
15079;BMP180;6932;51.438;5.470;2022-09-21T05:24:45;102300.00;;;15.50
15079;BMP180;6932;51.438;5.470;2022-09-21T05:27:11;102292.00;;;15.60
15079;BMP180;6932;51.438;5.470;2022-09-21T05:29:39;102292.00;;;15.80
15079;BMP180;6932;51.438;5.470;2022-09-21T05:32:42;102286.00;;;15.90
15079;BMP180;6932;51.438;5.470;2022-09-21T05:36:09;102295.00;;;16.00
15079;BMP180;6932;51.438;5.470;2022-09-21T05:38:43;102300.00;;;16.10
15079;BMP180;6932;51.438;5.470;2022-09-21T05:41:09;102299.00;;;16.20
15079;BMP180;6932;51.438;5.470;2022-09-21T05:43:35;102294.00;;;16.30
15079;BMP180;6932;51.438;5.470;2022-09-21T05:46:10;102295.00;;;16.40
15079;BMP180;6932;51.438;5.470;2022-09-21T05:48:42;102300.00;;;16.50
15079;BMP180;6932;51.438;5.470;2022-09-21T05:52:11;102304.00;;;16.70
15079;BMP180;6932;51.438;5.470;2022-09-21T05:57:42;102303.00;;;16.90
15079;BMP180;6932;51.438;5.470;2022-09-21T06:00:21;102320.00;;;17.00
15079;BMP180;6932;51.438;5.470;2022-09-21T06:05:49;102311.00;;;17.20
15079;BMP180;6932;51.438;5.470;2022-09-21T06:08:15;102316.00;;;17.30
15079;BMP180;6932;51.438;5.470;2022-09-21T06:10:41;102309.00;;;17.30
15079;BMP180;6932;51.438;5.470;2022-09-21T06:13:06;102312.00;;;17.40
15079;BMP180;6932;51.438;5.470;2022-09-21T06:15:33;102310.00;;;17.40
15079;BMP180;6932;51.438;5.470;2022-09-21T06:18:05;102317.00;;;17.40
15079;BMP180;6932;51.438;5.470;2022-09-21T06:20:32;102317.00;;;17.40
15079;BMP180;6932;51.438;5.470;2022-09-21T06:23:07;102319.00;;;17.40
15079;BMP180;6932;51.438;5.470;2022-09-21T06:25:33;102317.00;;;17.40
15079;BMP180;6932;51.438;5.470;2022-09-21T06:28:08;102328.00;;;17.40
15079;BMP180;6932;51.438;5.470;2022-09-21T06:30:35;102327.00;;;17.40
15079;BMP180;6932;51.438;5.470;2022-09-21T06:33:03;102321.00;;;17.40
15079;BMP180;6932;51.438;5.470;2022-09-21T06:35:31;102320.00;;;17.50
15079;BMP180;6932;51.438;5.470;2022-09-21T06:38:02;102320.00;;;17.50
15079;BMP180;6932;51.438;5.470;2022-09-21T06:40:30;102321.00;;;17.50
15079;BMP180;6932;51.438;5.470;2022-09-21T06:42:58;102318.00;;;17.50
15079;BMP180;6932;51.438;5.470;2022-09-21T06:45:25;102318.00;;;17.60
15079;BMP180;6932;51.438;5.470;2022-09-21T06:47:52;102318.00;;;17.70
15079;BMP180;6932;51.438;5.470;2022-09-21T06:50:18;102324.00;;;17.80
15079;BMP180;6932;51.438;5.470;2022-09-21T06:52:44;102319.00;;;17.90
15079;BMP180;6932;51.438;5.470;2022-09-21T06:55:10;102323.00;;;18.10
15079;BMP180;6932;51.438;5.470;2022-09-21T06:57:36;102324.00;;;18.30
15079;BMP180;6932;51.438;5.470;2022-09-21T07:00:08;102322.00;;;18.60
15079;BMP180;6932;51.438;5.470;2022-09-21T07:02:35;102319.00;;;18.70
15079;BMP180;6932;51.438;5.470;2022-09-21T07:05:01;102311.00;;;18.90
15079;BMP180;6932;51.438;5.470;2022-09-21T07:07:28;102318.00;;;19.10
15079;BMP180;6932;51.438;5.470;2022-09-21T07:09:58;102327.00;;;19.30
15079;BMP180;6932;51.438;5.470;2022-09-21T07:12:27;102319.00;;;19.50
15079;BMP180;6932;51.438;5.470;2022-09-21T07:14:53;102322.00;;;19.70
15079;BMP180;6932;51.438;5.470;2022-09-21T07:17:18;102325.00;;;19.90
15079;BMP180;6932;51.438;5.470;2022-09-21T07:19:44;102321.00;;;20.00
15079;BMP180;6932;51.438;5.470;2022-09-21T07:22:10;102317.00;;;20.10
15079;BMP180;6932;51.438;5.470;2022-09-21T07:24:36;102322.00;;;20.20
15079;BMP180;6932;51.438;5.470;2022-09-21T07:27:01;102321.00;;;20.40
15079;BMP180;6932;51.438;5.470;2022-09-21T07:29:27;102326.00;;;20.60
15079;BMP180;6932;51.438;5.470;2022-09-21T07:31:53;102320.00;;;20.90
15079;BMP180;6932;51.438;5.470;2022-09-21T07:34:19;102327.00;;;21.10
15079;BMP180;6932;51.438;5.470;2022-09-21T07:36:44;102316.00;;;21.30
15079;BMP180;6932;51.438;5.470;2022-09-21T07:39:10;102323.00;;;21.40
15079;BMP180;6932;51.438;5.470;2022-09-21T07:41:37;102317.00;;;21.60
15079;BMP180;6932;51.438;5.470;2022-09-21T07:44:03;102314.00;;;21.70
15079;BMP180;6932;51.438;5.470;2022-09-21T07:46:29;102304.00;;;21.80
15079;BMP180;6932;51.438;5.470;2022-09-21T07:48:56;102320.00;;;21.90
15079;BMP180;6932;51.438;5.470;2022-09-21T07:51:23;102319.00;;;21.90
15079;BMP180;6932;51.438;5.470;2022-09-21T07:53:55;102315.00;;;22.10
15079;BMP180;6932;51.438;5.470;2022-09-21T07:56:24;102307.00;;;22.20
15079;BMP180;6932;51.438;5.470;2022-09-21T07:58:50;102316.00;;;22.30
15079;BMP180;6932;51.438;5.470;2022-09-21T08:01:34;102312.00;;;22.50
15079;BMP180;6932;51.438;5.470;2022-09-21T08:04:01;102322.00;;;22.70
15079;BMP180;6932;51.438;5.470;2022-09-21T08:06:29;102316.00;;;22.80
15079;BMP180;6932;51.438;5.470;2022-09-21T08:09:01;102319.00;;;23.00
15079;BMP180;6932;51.438;5.470;2022-09-21T08:11:29;102315.00;;;23.00
15079;BMP180;6932;51.438;5.470;2022-09-21T08:13:59;102311.00;;;23.00
15079;BMP180;6932;51.438;5.470;2022-09-21T08:16:28;102315.00;;;23.00
15079;BMP180;6932;51.438;5.470;2022-09-21T08:18:54;102314.00;;;23.20
15079;BMP180;6932;51.438;5.470;2022-09-21T08:21:20;102322.00;;;23.30
15079;BMP180;6932;51.438;5.470;2022-09-21T08:23:47;102309.00;;;23.50
15079;BMP180;6932;51.438;5.470;2022-09-21T08:26:17;102312.00;;;23.60
15079;BMP180;6932;51.438;5.470;2022-09-21T08:28:50;102323.00;;;23.70
15079;BMP180;6932;51.438;5.470;2022-09-21T08:31:19;102318.00;;;23.70
15079;BMP180;6932;51.438;5.470;2022-09-21T08:33:47;102319.00;;;23.80
15079;BMP180;6932;51.438;5.470;2022-09-21T08:36:13;102319.00;;;23.90
15079;BMP180;6932;51.438;5.470;2022-09-21T08:38:39;102318.00;;;24.10
15079;BMP180;6932;51.438;5.470;2022-09-21T08:41:18;102302.00;;;24.20
15079;BMP180;6932;51.438;5.470;2022-09-21T08:43:58;102306.00;;;24.10
15079;BMP180;6932;51.438;5.470;2022-09-21T08:46:27;102303.00;;;24.00
15079;BMP180;6932;51.438;5.470;2022-09-21T08:51:35;102315.00;;;24.00
15079;BMP180;6932;51.438;5.470;2022-09-21T08:54:18;102315.00;;;23.90
15079;BMP180;6932;51.438;5.470;2022-09-21T08:56:46;102330.00;;;23.80
15079;BMP180;6932;51.438;5.470;2022-09-21T08:59:12;102329.00;;;23.80
15079;BMP180;6932;51.438;5.470;2022-09-21T09:01:56;102332.00;;;23.80
15079;BMP180;6932;51.438;5.470;2022-09-21T09:04:44;102327.00;;;23.70
15079;BMP180;6932;51.438;5.470;2022-09-21T09:13:37;102252.00;;;23.60
15079;BMP180;6932;51.438;5.470;2022-09-21T09:21:48;102261.00;;;22.70
15079;BMP180;6932;51.438;5.470;2022-09-21T09:24:48;102259.00;;;22.60
15079;BMP180;6932;51.438;5.470;2022-09-21T09:27:29;102352.00;;;22.40
15079;BMP180;6932;51.438;5.470;2022-09-21T09:30:12;102350.00;;;22.60
15079;BMP180;6932;51.438;5.470;2022-09-21T09:33:02;102350.00;;;22.80
15079;BMP180;6932;51.438;5.470;2022-09-21T09:35:49;102349.00;;;23.10
15079;BMP180;6932;51.438;5.470;2022-09-21T09:38:54;102348.00;;;23.40
15079;BMP180;6932;51.438;5.470;2022-09-21T09:47:58;102328.00;;;23.90
15079;BMP180;6932;51.438;5.470;2022-09-21T09:50:35;102325.00;;;24.10
15079;BMP180;6932;51.438;5.470;2022-09-21T09:53:09;102319.00;;;24.20
15079;BMP180;6932;51.438;5.470;2022-09-21T09:55:41;102320.00;;;24.20
15079;BMP180;6932;51.438;5.470;2022-09-21T09:58:20;102324.00;;;24.10
15079;BMP180;6932;51.438;5.470;2022-09-21T10:00:52;102328.00;;;24.00
15079;BMP180;6932;51.438;5.470;2022-09-21T10:03:23;102333.00;;;24.00
15079;BMP180;6932;51.438;5.470;2022-09-21T10:05:50;102332.00;;;24.00
15079;BMP180;6932;51.438;5.470;2022-09-21T10:08:43;102326.00;;;24.00
15079;BMP180;6932;51.438;5.470;2022-09-21T10:11:14;102320.00;;;24.00
15079;BMP180;6932;51.438;5.470;2022-09-21T10:13:48;102326.00;;;24.00
15079;BMP180;6932;51.438;5.470;2022-09-21T10:18:55;102310.00;;;24.10
15079;BMP180;6932;51.438;5.470;2022-09-21T10:21:40;102325.00;;;24.00
15079;BMP180;6932;51.438;5.470;2022-09-21T10:24:26;102336.00;;;23.90
15079;BMP180;6932;51.438;5.470;2022-09-21T10:29:42;102340.00;;;23.70
15079;BMP180;6932;51.438;5.470;2022-09-21T10:37:37;102335.00;;;23.70
15079;BMP180;6932;51.438;5.470;2022-09-21T10:40:23;102334.00;;;23.60
15079;BMP180;6932;51.438;5.470;2022-09-21T10:42:56;102326.00;;;23.50
15079;BMP180;6932;51.438;5.470;2022-09-21T10:45:34;102328.00;;;23.50
15079;BMP180;6932;51.438;5.470;2022-09-21T10:48:12;102325.00;;;23.50
15079;BMP180;6932;51.438;5.470;2022-09-21T10:50:41;102322.00;;;23.50
15079;BMP180;6932;51.438;5.470;2022-09-21T10:55:46;102321.00;;;23.70
15079;BMP180;6932;51.438;5.470;2022-09-21T10:58:14;102321.00;;;23.80
15079;BMP180;6932;51.438;5.470;2022-09-21T11:00:46;102325.00;;;23.90
15079;BMP180;6932;51.438;5.470;2022-09-21T11:03:50;102329.00;;;23.80
15079;BMP180;6932;51.438;5.470;2022-09-21T11:06:33;102324.00;;;23.70
15079;BMP180;6932;51.438;5.470;2022-09-21T11:09:08;102324.00;;;23.70
15079;BMP180;6932;51.438;5.470;2022-09-21T11:12:24;102320.00;;;23.70
15079;BMP180;6932;51.438;5.470;2022-09-21T11:15:17;102314.00;;;23.70
15079;BMP180;6932;51.438;5.470;2022-09-21T11:18:01;102306.00;;;23.80
15079;BMP180;6932;51.438;5.470;2022-09-21T11:24:02;102326.00;;;23.70
15079;BMP180;6932;51.438;5.470;2022-09-21T11:29:32;102311.00;;;23.70
15079;BMP180;6932;51.438;5.470;2022-09-21T11:32:28;102316.00;;;23.70
15079;BMP180;6932;51.438;5.470;2022-09-21T11:36:03;102317.00;;;23.70
15079;BMP180;6932;51.438;5.470;2022-09-21T11:38:47;102315.00;;;23.60
15079;BMP180;6932;51.438;5.470;2022-09-21T11:41:36;102314.00;;;23.50
15079;BMP180;6932;51.438;5.470;2022-09-21T11:50:04;102316.00;;;23.30
15079;BMP180;6932;51.438;5.470;2022-09-21T11:55:37;102312.00;;;23.20
15079;BMP180;6932;51.438;5.470;2022-09-21T12:01:36;102304.00;;;23.20
15079;BMP180;6932;51.438;5.470;2022-09-21T12:07:23;102301.00;;;23.20
15079;BMP180;6932;51.438;5.470;2022-09-21T12:19:49;102301.00;;;23.00
15079;BMP180;6932;51.438;5.470;2022-09-21T12:22:26;102294.00;;;23.00
15079;BMP180;6932;51.438;5.470;2022-09-21T12:25:24;102291.00;;;22.90
15079;BMP180;6932;51.438;5.470;2022-09-21T12:28:29;102293.00;;;22.90
15079;BMP180;6932;51.438;5.470;2022-09-21T12:31:10;102282.00;;;22.90
15079;BMP180;6932;51.438;5.470;2022-09-21T12:33:53;102286.00;;;22.90
15079;BMP180;6932;51.438;5.470;2022-09-21T12:36:36;102283.00;;;22.90
15079;BMP180;6932;51.438;5.470;2022-09-21T12:39:26;102277.00;;;22.90
15079;BMP180;6932;51.438;5.470;2022-09-21T12:42:10;102271.00;;;23.00
15079;BMP180;6932;51.438;5.470;2022-09-21T12:45:13;102279.00;;;23.10
15079;BMP180;6932;51.438;5.470;2022-09-21T12:51:01;102268.00;;;23.10
15079;BMP180;6932;51.438;5.470;2022-09-21T12:53:34;102269.00;;;23.10
15079;BMP180;6932;51.438;5.470;2022-09-21T12:56:11;102263.00;;;23.10
15079;BMP180;6932;51.438;5.470;2022-09-21T12:59:12;102259.00;;;23.20
15079;BMP180;6932;51.438;5.470;2022-09-21T13:04:43;102258.00;;;23.30
15079;BMP180;6932;51.438;5.470;2022-09-21T13:07:28;102258.00;;;23.40
15079;BMP180;6932;51.438;5.470;2022-09-21T13:10:00;102250.00;;;23.40
15079;BMP180;6932;51.438;5.470;2022-09-21T13:12:39;102252.00;;;23.50
15079;BMP180;6932;51.438;5.470;2022-09-21T13:15:31;102246.00;;;23.50
15079;BMP180;6932;51.438;5.470;2022-09-21T13:18:04;102256.00;;;23.50
15079;BMP180;6932;51.438;5.470;2022-09-21T13:20:40;102257.00;;;23.50
15079;BMP180;6932;51.438;5.470;2022-09-21T13:23:19;102246.00;;;23.40
15079;BMP180;6932;51.438;5.470;2022-09-21T13:26:06;102255.00;;;23.40
15079;BMP180;6932;51.438;5.470;2022-09-21T13:47:47;102237.00;;;23.10
15079;BMP180;6932;51.438;5.470;2022-09-21T13:53:22;102239.00;;;23.10
15079;BMP180;6932;51.438;5.470;2022-09-21T13:55:53;102236.00;;;23.00
15079;BMP180;6932;51.438;5.470;2022-09-21T13:58:33;102245.00;;;23.00
15079;BMP180;6932;51.438;5.470;2022-09-21T14:01:03;102231.00;;;22.90
15079;BMP180;6932;51.438;5.470;2022-09-21T14:03:44;102229.00;;;22.80
15079;BMP180;6932;51.438;5.470;2022-09-21T14:06:15;102229.00;;;22.80
15079;BMP180;6932;51.438;5.470;2022-09-21T14:11:37;102219.00;;;22.80
15079;BMP180;6932;51.438;5.470;2022-09-21T14:24:49;102218.00;;;22.60
15079;BMP180;6932;51.438;5.470;2022-09-21T14:27:40;102212.00;;;22.60
15079;BMP180;6932;51.438;5.470;2022-09-21T14:30:23;102212.00;;;22.50
15079;BMP180;6932;51.438;5.470;2022-09-21T14:35:37;102202.00;;;22.50
15079;BMP180;6932;51.438;5.470;2022-09-21T14:38:24;102207.00;;;22.50
15079;BMP180;6932;51.438;5.470;2022-09-21T14:40:56;102203.00;;;22.50
15079;BMP180;6932;51.438;5.470;2022-09-21T14:43:29;102199.00;;;22.50
15079;BMP180;6932;51.438;5.470;2022-09-21T15:00:52;102194.00;;;22.60
15079;BMP180;6932;51.438;5.470;2022-09-21T15:06:25;102190.00;;;22.60
15079;BMP180;6932;51.438;5.470;2022-09-21T15:13:01;102186.00;;;22.60
15079;BMP180;6932;51.438;5.470;2022-09-21T15:15:43;102180.00;;;22.60
15079;BMP180;6932;51.438;5.470;2022-09-21T15:18:20;102186.00;;;22.60
15079;BMP180;6932;51.438;5.470;2022-09-21T15:20:58;102184.00;;;22.60
15079;BMP180;6932;51.438;5.470;2022-09-21T15:23:36;102179.00;;;22.60
15079;BMP180;6932;51.438;5.470;2022-09-21T15:26:14;102168.00;;;22.60
15079;BMP180;6932;51.438;5.470;2022-09-21T15:28:47;102172.00;;;22.60
15079;BMP180;6932;51.438;5.470;2022-09-21T15:31:15;102173.00;;;22.60
15079;BMP180;6932;51.438;5.470;2022-09-21T15:33:44;102165.00;;;22.60
15079;BMP180;6932;51.438;5.470;2022-09-21T15:36:25;102165.00;;;22.60
15079;BMP180;6932;51.438;5.470;2022-09-21T15:38:52;102164.00;;;22.60
15079;BMP180;6932;51.438;5.470;2022-09-21T15:41:45;102164.00;;;22.50
15079;BMP180;6932;51.438;5.470;2022-09-21T15:44:13;102155.00;;;22.50
15079;BMP180;6932;51.438;5.470;2022-09-21T15:46:42;102170.00;;;22.50
15079;BMP180;6932;51.438;5.470;2022-09-21T15:49:14;102166.00;;;22.40
15079;BMP180;6932;51.438;5.470;2022-09-21T15:52:31;102164.00;;;22.40
15079;BMP180;6932;51.438;5.470;2022-09-21T15:55:04;102161.00;;;22.40
15079;BMP180;6932;51.438;5.470;2022-09-21T15:57:42;102159.00;;;22.50
15079;BMP180;6932;51.438;5.470;2022-09-21T16:02:48;102156.00;;;22.50
15079;BMP180;6932;51.438;5.470;2022-09-21T16:05:19;102165.00;;;22.40
15079;BMP180;6932;51.438;5.470;2022-09-21T16:07:45;102160.00;;;22.40
15079;BMP180;6932;51.438;5.470;2022-09-21T16:13:16;102155.00;;;22.40
15079;BMP180;6932;51.438;5.470;2022-09-21T16:16:13;102158.00;;;22.30
15079;BMP180;6932;51.438;5.470;2022-09-21T16:18:52;102156.00;;;22.30
15079;BMP180;6932;51.438;5.470;2022-09-21T16:21:29;102154.00;;;22.30
15079;BMP180;6932;51.438;5.470;2022-09-21T16:24:17;102154.00;;;22.30
15079;BMP180;6932;51.438;5.470;2022-09-21T16:26:58;102155.00;;;22.30
15079;BMP180;6932;51.438;5.470;2022-09-21T16:29:46;102154.00;;;22.30
15079;BMP180;6932;51.438;5.470;2022-09-21T16:32:30;102158.00;;;22.30
15079;BMP180;6932;51.438;5.470;2022-09-21T16:35:27;102153.00;;;22.20
15079;BMP180;6932;51.438;5.470;2022-09-21T16:37:54;102045.00;;;22.20
15079;BMP180;6932;51.438;5.470;2022-09-21T16:40:22;102061.00;;;22.10
15079;BMP180;6932;51.438;5.470;2022-09-21T16:42:48;102059.00;;;21.90
15079;BMP180;6932;51.438;5.470;2022-09-21T16:45:28;102082.00;;;21.70
15079;BMP180;6932;51.438;5.470;2022-09-21T16:47:56;102077.00;;;21.40
15079;BMP180;6932;51.438;5.470;2022-09-21T16:50:24;102090.00;;;21.30
15079;BMP180;6932;51.438;5.470;2022-09-21T16:52:50;102075.00;;;21.10
15079;BMP180;6932;51.438;5.470;2022-09-21T16:55:18;102077.00;;;21.00
15079;BMP180;6932;51.438;5.470;2022-09-21T16:57:44;102078.00;;;20.90
15079;BMP180;6932;51.438;5.470;2022-09-21T17:00:15;102078.00;;;20.80
15079;BMP180;6932;51.438;5.470;2022-09-21T17:02:46;102075.00;;;20.70
15079;BMP180;6932;51.438;5.470;2022-09-21T17:05:12;102167.00;;;20.70
15079;BMP180;6932;51.438;5.470;2022-09-21T17:07:40;102175.00;;;20.80
15079;BMP180;6932;51.438;5.470;2022-09-21T17:10:14;102174.00;;;20.90
15079;BMP180;6932;51.438;5.470;2022-09-21T17:12:40;102172.00;;;21.10
15079;BMP180;6932;51.438;5.470;2022-09-21T17:15:10;102166.00;;;21.20
15079;BMP180;6932;51.438;5.470;2022-09-21T17:17:37;102168.00;;;21.20
15079;BMP180;6932;51.438;5.470;2022-09-21T17:20:19;102165.00;;;21.30
15079;BMP180;6932;51.438;5.470;2022-09-21T17:22:48;102173.00;;;21.40
15079;BMP180;6932;51.438;5.470;2022-09-21T17:25:14;102164.00;;;21.40
15079;BMP180;6932;51.438;5.470;2022-09-21T17:27:39;102171.00;;;21.40
15079;BMP180;6932;51.438;5.470;2022-09-21T17:30:12;102167.00;;;21.40
15079;BMP180;6932;51.438;5.470;2022-09-21T17:32:39;102158.00;;;21.50
15079;BMP180;6932;51.438;5.470;2022-09-21T17:35:31;102160.00;;;21.50